createdAt,value
2023-02-17T00:00:39.395Z,15.55
2023-02-17T00:03:06.139Z,14.88
2023-02-17T00:05:32.880Z,14.98
2023-02-17T00:07:59.645Z,15.45
2023-02-17T00:10:26.396Z,15.68
2023-02-17T00:12:53.133Z,14.38
2023-02-17T00:15:19.963Z,14.38
2023-02-17T00:17:46.722Z,14.73
2023-02-17T00:20:13.483Z,16.33
2023-02-17T00:22:40.311Z,14.20
2023-02-17T00:25:07.265Z,14.88
2023-02-17T00:27:34.000Z,15.45
2023-02-17T00:30:00.818Z,13.95
2023-02-17T00:32:27.599Z,15.45
2023-02-17T00:34:56.264Z,15.52
2023-02-17T00:37:23.063Z,14.88
2023-02-17T00:39:49.805Z,14.82
2023-02-17T00:42:16.665Z,14.52
2023-02-17T00:44:43.387Z,14.75
2023-02-17T00:47:10.115Z,14.82
2023-02-17T00:49:36.974Z,15.35
2023-02-17T00:52:03.866Z,14.77
2023-02-17T00:54:30.646Z,14.57
2023-02-17T00:56:57.432Z,15.52
2023-02-17T00:59:24.226Z,16.13
2023-02-17T01:01:51.110Z,14.65
2023-02-17T01:04:17.919Z,15.45
2023-02-17T01:06:44.678Z,15.38
2023-02-17T01:09:14.346Z,15.88
2023-02-17T01:11:42.821Z,16.65
2023-02-17T01:14:13.475Z,16.13
2023-02-17T01:16:43.866Z,16.55
2023-02-17T01:19:14.015Z,16.08
2023-02-17T01:21:40.979Z,16.80
2023-02-17T01:24:08.824Z,16.88
2023-02-17T01:26:36.761Z,17.55
2023-02-17T01:29:05.608Z,16.85
2023-02-17T01:31:33.128Z,16.55
2023-02-17T01:34:02.251Z,17.30
2023-02-17T01:36:29.433Z,17.20
2023-02-17T01:38:56.560Z,16.40
2023-02-17T01:41:28.843Z,16.70
2023-02-17T01:44:10.826Z,15.32
2023-02-17T01:46:38.734Z,16.65
2023-02-17T01:49:17.554Z,16.60
2023-02-17T01:51:46.955Z,17.20
2023-02-17T01:54:19.267Z,18.15
2023-02-17T01:56:48.527Z,17.80
2023-02-17T01:59:20.132Z,16.27
2023-02-17T02:01:49.671Z,17.02
2023-02-17T02:04:20.235Z,17.35
2023-02-17T02:06:47.745Z,18.45
2023-02-17T02:09:25.790Z,17.33
2023-02-17T02:11:52.853Z,16.92
2023-02-17T02:14:21.152Z,17.58
2023-02-17T02:17:16.905Z,17.48
2023-02-17T02:20:09.563Z,18.15
2023-02-17T02:22:39.402Z,16.70
2023-02-17T02:25:47.817Z,17.92
2023-02-17T02:28:56.575Z,18.02
2023-02-17T02:31:38.204Z,18.27
2023-02-17T02:34:20.141Z,18.63
2023-02-17T02:37:02.707Z,18.17
2023-02-17T02:39:39.341Z,17.40
2023-02-17T02:42:10.998Z,17.70
2023-02-17T02:44:37.769Z,19.27
2023-02-17T02:47:26.102Z,17.75
2023-02-17T02:49:53.177Z,21.13
2023-02-17T02:52:31.898Z,18.15
2023-02-17T02:55:14.144Z,20.20
2023-02-17T02:58:01.311Z,18.67
2023-02-17T03:00:42.377Z,19.10
2023-02-17T03:03:20.953Z,19.52
2023-02-17T03:06:16.958Z,18.77
2023-02-17T03:08:56.371Z,19.67
2023-02-17T03:11:32.502Z,19.13
2023-02-17T03:14:14.149Z,19.48
2023-02-17T03:16:42.719Z,20.10
2023-02-17T03:19:10.780Z,19.77
2023-02-17T03:21:58.122Z,20.70
2023-02-17T03:24:25.100Z,20.42
2023-02-17T03:26:51.964Z,21.15
2023-02-17T03:29:18.985Z,20.75
2023-02-17T03:31:45.912Z,22.80
2023-02-17T03:34:12.848Z,22.45
2023-02-17T03:36:39.698Z,21.98
2023-02-17T03:39:06.456Z,22.67
2023-02-17T03:41:33.272Z,23.77
2023-02-17T03:44:00.166Z,23.15
2023-02-17T03:46:26.989Z,21.95
2023-02-17T03:48:53.776Z,22.30
2023-02-17T03:51:23.135Z,22.55
2023-02-17T03:53:50.881Z,22.88
2023-02-17T03:56:18.415Z,24.65
2023-02-17T03:58:45.492Z,22.52
2023-02-17T04:01:13.870Z,22.90
2023-02-17T04:03:41.271Z,23.33
2023-02-17T04:06:08.904Z,23.10
2023-02-17T04:08:36.075Z,23.10
2023-02-17T04:11:04.590Z,21.73
2023-02-17T04:13:32.066Z,23.33
2023-02-17T04:16:01.296Z,23.48
2023-02-17T04:18:28.656Z,22.88
2023-02-17T04:20:55.498Z,21.23
2023-02-17T04:23:22.929Z,21.52
2023-02-17T04:25:50.266Z,22.20
2023-02-17T04:28:17.794Z,20.80
2023-02-17T04:30:47.416Z,22.98
2023-02-17T04:33:14.777Z,22.80
2023-02-17T04:35:42.898Z,24.40
2023-02-17T04:38:10.717Z,21.33
2023-02-17T04:40:38.724Z,20.73
2023-02-17T04:43:06.017Z,22.33
2023-02-17T04:45:33.686Z,21.67
2023-02-17T04:48:00.473Z,22.75
2023-02-17T04:50:27.254Z,21.25
2023-02-17T04:52:54.101Z,22.10
2023-02-17T04:55:20.984Z,22.70
2023-02-17T04:57:47.734Z,22.63
2023-02-17T05:00:14.793Z,20.35
2023-02-17T05:02:41.561Z,21.88
2023-02-17T05:05:08.678Z,23.80
2023-02-17T05:07:35.557Z,22.20
2023-02-17T05:10:02.504Z,23.17
2023-02-17T05:12:29.291Z,22.48
2023-02-17T05:14:56.045Z,23.25
2023-02-17T05:17:22.837Z,21.35
2023-02-17T05:19:49.582Z,21.55
2023-02-17T05:22:16.414Z,21.70
2023-02-17T05:24:43.256Z,21.80
2023-02-17T05:27:10.108Z,21.40
2023-02-17T05:29:36.833Z,22.05
2023-02-17T05:32:03.753Z,22.60
2023-02-17T05:34:30.738Z,21.85
2023-02-17T05:36:57.561Z,22.35
2023-02-17T05:39:24.405Z,22.00
2023-02-17T05:41:51.188Z,22.45
2023-02-17T05:44:17.984Z,23.30
2023-02-17T05:46:44.795Z,22.25
2023-02-17T05:49:11.606Z,22.10
2023-02-17T05:51:38.459Z,23.30
2023-02-17T05:54:05.447Z,26.40
2023-02-17T05:56:32.630Z,25.67
2023-02-17T05:59:00.587Z,25.30
2023-02-17T06:01:27.981Z,26.42
2023-02-17T06:03:54.748Z,26.08
2023-02-17T06:06:21.579Z,27.15
2023-02-17T06:08:48.415Z,28.58
2023-02-17T06:11:15.287Z,28.13
2023-02-17T06:13:42.509Z,26.10
2023-02-17T06:16:09.706Z,26.80
2023-02-17T06:18:36.645Z,26.23
2023-02-17T06:21:03.543Z,25.92
2023-02-17T06:23:30.370Z,23.85
2023-02-17T06:25:57.090Z,24.20
2023-02-17T06:28:24.993Z,24.40
2023-02-17T06:30:51.818Z,25.85
2023-02-17T06:33:18.581Z,27.88
2023-02-17T06:35:50.098Z,25.42
2023-02-17T06:38:17.048Z,25.08
2023-02-17T06:40:44.426Z,24.38
2023-02-17T06:43:11.344Z,25.67
2023-02-17T06:45:38.162Z,26.45
2023-02-17T06:48:05.111Z,26.85
2023-02-17T06:50:31.984Z,27.40
2023-02-17T06:52:58.858Z,26.33
2023-02-17T06:55:25.688Z,24.13
2023-02-17T06:57:52.474Z,23.70
2023-02-17T07:00:20.002Z,23.58
2023-02-17T07:02:46.982Z,24.35
2023-02-17T07:05:14.164Z,23.52
2023-02-17T07:07:40.952Z,23.10
2023-02-17T07:10:08.303Z,23.30
2023-02-17T07:12:35.131Z,25.75
2023-02-17T07:15:01.898Z,27.38
2023-02-17T07:17:28.683Z,27.13
2023-02-17T07:19:55.634Z,27.02
2023-02-17T07:22:25.500Z,26.13
2023-02-17T07:24:52.439Z,25.60
2023-02-17T07:27:19.356Z,25.30
2023-02-17T07:29:46.077Z,25.83
2023-02-17T07:32:12.976Z,23.58
2023-02-17T07:34:39.820Z,23.95
2023-02-17T07:37:07.667Z,24.67
2023-02-17T07:39:34.476Z,23.50
2023-02-17T07:42:01.342Z,23.95
2023-02-17T07:44:28.668Z,24.48
2023-02-17T07:46:55.462Z,25.35
2023-02-17T07:49:22.343Z,25.08
2023-02-17T07:51:49.195Z,25.90
2023-02-17T07:54:16.140Z,25.23
2023-02-17T07:56:43.048Z,25.40
2023-02-17T07:59:13.999Z,27.00
2023-02-17T08:01:41.106Z,26.48
2023-02-17T08:04:08.011Z,26.25
2023-02-17T08:06:35.013Z,24.17
2023-02-17T08:09:20.333Z,25.25
2023-02-17T08:12:06.026Z,24.85
2023-02-17T08:14:33.566Z,24.93
2023-02-17T08:17:00.494Z,22.92
2023-02-17T08:19:39.550Z,24.15
2023-02-17T08:22:13.337Z,23.27
2023-02-17T08:24:40.124Z,23.30
2023-02-17T08:27:06.962Z,22.55
2023-02-17T08:29:33.740Z,23.35
2023-02-17T08:32:00.618Z,22.13
2023-02-17T08:34:28.621Z,21.23
2023-02-17T08:36:55.384Z,21.05
2023-02-17T08:39:22.287Z,21.58
2023-02-17T08:41:49.041Z,20.50
2023-02-17T08:44:18.799Z,20.00
2023-02-17T08:46:48.176Z,21.95
2023-02-17T08:49:17.243Z,20.80
2023-02-17T08:51:44.875Z,21.15
2023-02-17T08:54:12.862Z,20.92
2023-02-17T08:56:40.622Z,19.60
2023-02-17T08:59:08.946Z,20.65
2023-02-17T09:01:37.058Z,21.92
2023-02-17T09:04:05.537Z,20.63
2023-02-17T09:06:37.144Z,21.70
2023-02-17T09:09:06.173Z,20.92
2023-02-17T09:11:32.922Z,20.58
2023-02-17T09:13:59.851Z,21.15
2023-02-17T09:16:26.892Z,22.15
2023-02-17T09:18:54.478Z,19.95
2023-02-17T09:21:22.289Z,21.63
2023-02-17T09:23:49.370Z,20.33
2023-02-17T09:26:17.878Z,21.05
2023-02-17T09:28:44.876Z,23.73
2023-02-17T09:31:14.338Z,22.92
2023-02-17T09:33:42.577Z,23.63
2023-02-17T09:36:12.232Z,23.17
2023-02-17T09:38:39.978Z,22.48
2023-02-17T09:41:16.178Z,23.85
2023-02-17T09:43:43.568Z,26.02
2023-02-17T09:46:27.292Z,26.73
2023-02-17T09:48:59.331Z,26.30
2023-02-17T09:51:35.192Z,26.95
2023-02-17T09:54:05.281Z,24.65
2023-02-17T09:56:37.437Z,23.63
2023-02-17T09:59:27.782Z,24.25
2023-02-17T10:01:56.938Z,22.60
2023-02-17T10:04:47.504Z,23.52
2023-02-17T10:07:41.621Z,21.48
2023-02-17T10:10:10.655Z,20.65
2023-02-17T10:12:46.564Z,20.92
2023-02-17T10:15:24.423Z,23.20
2023-02-17T10:18:02.086Z,19.98
2023-02-17T10:20:35.421Z,20.83
2023-02-17T10:23:07.448Z,20.88
2023-02-17T10:25:47.745Z,21.58
2023-02-17T10:28:36.354Z,20.15
2023-02-17T10:31:17.613Z,19.60
2023-02-17T10:34:05.668Z,20.98
2023-02-17T10:36:52.163Z,19.75
2023-02-17T10:42:02.778Z,20.65
2023-02-17T10:44:34.132Z,19.15
2023-02-17T10:47:01.027Z,21.17
2023-02-17T10:49:35.917Z,21.02
2023-02-17T10:52:24.124Z,21.45
2023-02-17T10:54:56.296Z,21.20
2023-02-17T10:57:26.896Z,19.77
2023-02-17T10:59:54.099Z,21.42
2023-02-17T11:02:44.255Z,21.25
2023-02-17T11:05:24.911Z,20.98
2023-02-17T11:08:23.572Z,20.08
2023-02-17T11:11:03.784Z,21.33
2023-02-17T11:13:37.968Z,21.13
2023-02-17T11:16:06.294Z,21.35
2023-02-17T11:18:36.153Z,23.00
2023-02-17T11:21:10.432Z,21.48
2023-02-17T11:24:00.023Z,23.27
2023-02-17T11:26:30.054Z,23.08
2023-02-17T11:29:25.610Z,22.85
2023-02-17T11:32:15.166Z,23.40
2023-02-17T11:34:44.234Z,22.90
2023-02-17T11:37:14.102Z,23.15
2023-02-17T11:39:47.077Z,25.10
2023-02-17T11:42:27.186Z,24.98
2023-02-17T11:44:56.846Z,24.27
2023-02-17T11:47:47.838Z,25.98
2023-02-17T11:50:31.780Z,25.35
2023-02-17T11:53:43.691Z,24.52
2023-02-17T11:56:18.058Z,23.48
2023-02-17T11:58:59.970Z,22.58
2023-02-17T12:01:52.430Z,24.95
2023-02-17T12:04:48.356Z,25.75
2023-02-17T12:07:27.726Z,25.25
2023-02-17T12:10:05.999Z,24.85
2023-02-17T12:13:20.650Z,24.60
2023-02-17T12:16:05.709Z,24.23
2023-02-17T12:18:53.607Z,26.00
2023-02-17T12:21:39.068Z,25.45
2023-02-17T12:24:43.584Z,25.35
2023-02-17T12:27:49.714Z,20.95
2023-02-17T12:30:16.663Z,22.80
2023-02-17T12:33:09.907Z,20.85
2023-02-17T12:35:42.688Z,19.40
2023-02-17T12:38:15.142Z,20.55
2023-02-17T12:40:50.336Z,20.60
2023-02-17T12:43:29.338Z,21.77
2023-02-17T12:46:00.327Z,21.30
2023-02-17T12:48:54.286Z,22.02
2023-02-17T12:51:31.726Z,22.20
2023-02-17T12:54:30.647Z,24.25
2023-02-17T12:57:10.591Z,22.98
2023-02-17T12:59:41.620Z,24.25
2023-02-17T13:02:15.488Z,22.75
2023-02-17T13:04:45.203Z,23.30
2023-02-17T13:07:21.139Z,23.42
2023-02-17T13:09:49.593Z,22.13
2023-02-17T13:12:24.054Z,22.17
2023-02-17T13:14:54.595Z,21.80
2023-02-17T13:17:30.451Z,25.83
2023-02-17T13:20:20.523Z,21.73
2023-02-17T13:22:47.479Z,21.95
2023-02-17T13:25:31.310Z,23.73
2023-02-17T13:28:01.119Z,22.17
2023-02-17T13:30:42.611Z,21.60
2023-02-17T13:33:21.315Z,25.25
2023-02-17T13:35:48.820Z,23.83
2023-02-17T13:38:30.722Z,24.95
2023-02-17T13:41:00.618Z,25.27
2023-02-17T13:43:29.747Z,23.08
2023-02-17T13:46:02.959Z,23.63
2023-02-17T13:48:34.830Z,27.58
2023-02-17T13:51:06.401Z,24.73
2023-02-17T13:53:33.127Z,25.42
2023-02-17T13:56:03.216Z,25.05
2023-02-17T13:58:39.189Z,26.52
2023-02-17T14:01:08.651Z,26.73
2023-02-17T14:03:43.108Z,25.65
2023-02-17T14:06:28.680Z,26.80
2023-02-17T14:08:56.527Z,26.53
2023-02-17T14:11:28.468Z,25.13
2023-02-17T14:13:57.122Z,26.77
2023-02-17T14:16:28.440Z,25.38
2023-02-17T14:19:02.850Z,25.40
2023-02-17T14:21:29.890Z,25.23
2023-02-17T14:23:58.209Z,26.05
2023-02-17T14:26:27.722Z,23.95
2023-02-17T14:28:59.981Z,26.88
2023-02-17T14:31:27.955Z,26.95
2023-02-17T14:34:02.208Z,26.88
2023-02-17T14:36:36.036Z,26.08
2023-02-17T14:39:05.552Z,27.48
2023-02-17T14:41:32.825Z,27.30
2023-02-17T14:44:00.748Z,27.73
2023-02-17T14:46:28.349Z,28.20
2023-02-17T14:48:55.174Z,28.98
2023-02-17T14:51:24.362Z,29.65
2023-02-17T14:53:52.505Z,30.20
2023-02-17T14:56:36.601Z,29.73
2023-02-17T14:59:03.829Z,30.88
2023-02-17T15:01:31.030Z,30.50
2023-02-17T15:03:59.035Z,28.83
2023-02-17T15:06:32.650Z,30.52
2023-02-17T15:09:01.280Z,28.92
2023-02-17T15:11:32.222Z,30.92
2023-02-17T15:13:59.091Z,34.33
2023-02-17T15:16:26.106Z,33.17
2023-02-17T15:18:52.873Z,35.80
2023-02-17T15:21:24.335Z,34.10
2023-02-17T15:23:51.686Z,35.10
2023-02-17T15:26:18.586Z,35.38
2023-02-17T15:28:45.411Z,33.13
2023-02-17T15:31:15.524Z,31.83
2023-02-17T15:33:44.496Z,30.23
2023-02-17T15:36:16.863Z,31.38
2023-02-17T15:38:43.692Z,27.27
2023-02-17T15:41:17.004Z,28.38
2023-02-17T15:43:46.439Z,27.77
2023-02-17T15:46:16.296Z,27.23
2023-02-17T15:48:44.967Z,27.33
2023-02-17T15:51:15.039Z,30.60
2023-02-17T15:53:42.514Z,29.55
2023-02-17T15:56:32.382Z,29.10
2023-02-17T15:59:04.747Z,28.10
2023-02-17T16:01:35.567Z,28.90
2023-02-17T16:04:02.337Z,28.10
2023-02-17T16:06:29.551Z,30.83
2023-02-17T16:08:58.819Z,30.27
2023-02-17T16:11:27.191Z,27.40
2023-02-17T16:13:54.269Z,29.55
2023-02-17T16:16:28.663Z,29.27
2023-02-17T16:18:55.541Z,28.65
2023-02-17T16:21:22.354Z,29.40
2023-02-17T16:23:49.211Z,28.77
2023-02-17T16:26:25.682Z,30.23
2023-02-17T16:28:52.563Z,32.72
2023-02-17T16:31:19.438Z,29.02
2023-02-17T16:33:46.424Z,28.70
2023-02-17T16:36:19.121Z,27.05
2023-02-17T16:38:50.475Z,29.20
2023-02-17T16:41:19.510Z,29.23
2023-02-17T16:43:46.996Z,29.15
2023-02-17T16:46:27.995Z,28.63
2023-02-17T16:48:54.752Z,27.30
2023-02-17T16:51:21.703Z,25.85
2023-02-17T16:53:48.743Z,27.92
2023-02-17T16:56:22.541Z,27.58
2023-02-17T16:58:49.299Z,28.50
2023-02-17T17:01:16.179Z,28.40
2023-02-17T17:03:43.578Z,30.73
2023-02-17T17:06:22.822Z,30.05
2023-02-17T17:08:50.175Z,28.85
2023-02-17T17:11:19.539Z,29.42
2023-02-17T17:13:47.155Z,30.20
2023-02-17T17:16:32.783Z,32.47
2023-02-17T17:18:59.732Z,30.87
2023-02-17T17:21:26.701Z,31.27
2023-02-17T17:23:53.617Z,31.88
2023-02-17T17:26:36.255Z,33.08
2023-02-17T17:29:03.691Z,31.98
2023-02-17T17:31:30.532Z,30.80
2023-02-17T17:33:57.462Z,27.23
2023-02-17T17:36:35.465Z,31.67
2023-02-17T17:39:05.737Z,31.15
2023-02-17T17:41:33.055Z,30.20
2023-02-17T17:43:59.903Z,32.55
2023-02-17T17:46:29.529Z,31.63
2023-02-17T17:48:58.897Z,31.23
2023-02-17T17:51:27.768Z,30.65
2023-02-17T17:53:55.079Z,31.75
2023-02-17T17:56:28.275Z,30.75
2023-02-17T17:58:56.176Z,30.92
2023-02-17T18:01:23.339Z,32.33
2023-02-17T18:03:51.056Z,31.02
2023-02-17T18:06:25.658Z,33.88
2023-02-17T18:08:54.497Z,29.63
2023-02-17T18:11:24.048Z,33.83
2023-02-17T18:13:53.525Z,33.97
2023-02-17T18:16:22.931Z,35.03
2023-02-17T18:18:50.782Z,34.10
2023-02-17T18:21:17.606Z,34.58
2023-02-17T18:23:44.764Z,35.53
2023-02-17T18:26:12.331Z,34.33
2023-02-17T18:28:39.404Z,36.38
2023-02-17T18:31:16.982Z,33.00
2023-02-17T18:33:44.055Z,35.15
2023-02-17T18:36:16.616Z,33.78
2023-02-17T18:38:44.347Z,37.38
2023-02-17T18:41:37.786Z,35.92
2023-02-17T18:44:05.315Z,36.22
2023-02-17T18:46:33.279Z,35.53
2023-02-17T18:49:00.273Z,39.15
2023-02-17T18:51:27.758Z,35.40
2023-02-17T18:53:56.542Z,35.40
2023-02-17T18:56:26.096Z,37.53
2023-02-17T18:58:55.276Z,37.58
2023-02-17T19:01:23.857Z,37.97
2023-02-17T19:03:51.953Z,36.95
2023-02-17T19:06:22.465Z,35.70
2023-02-17T19:08:49.785Z,34.85
2023-02-17T19:11:18.118Z,37.72
2023-02-17T19:13:45.559Z,36.60
2023-02-17T19:16:16.385Z,35.15
2023-02-17T19:18:44.875Z,33.22
2023-02-17T19:21:12.160Z,32.95
2023-02-17T19:23:40.574Z,35.30
2023-02-17T19:26:09.379Z,35.28
2023-02-17T19:28:37.433Z,35.33
2023-02-17T19:31:09.521Z,35.38
2023-02-17T19:33:36.375Z,35.55
2023-02-17T19:36:17.823Z,34.83
2023-02-17T19:38:45.608Z,33.92
2023-02-17T19:41:13.242Z,34.30
2023-02-17T19:43:40.817Z,33.90
2023-02-17T19:46:10.414Z,34.78
2023-02-17T19:48:37.414Z,35.63
2023-02-17T19:51:07.289Z,32.33
2023-02-17T19:53:35.034Z,32.70
2023-02-17T19:56:13.231Z,35.30
2023-02-17T19:58:41.651Z,35.28
2023-02-17T20:01:10.773Z,37.70
2023-02-17T20:03:38.140Z,39.38
2023-02-17T20:06:10.531Z,44.17
2023-02-17T20:08:38.300Z,39.92
2023-02-17T20:11:07.938Z,39.13
2023-02-17T20:13:45.155Z,38.90
2023-02-17T20:16:15.030Z,36.50
2023-02-17T20:18:44.935Z,39.00
2023-02-17T20:21:15.421Z,33.47
2023-02-17T20:23:42.686Z,33.03
2023-02-17T20:26:12.593Z,32.50
2023-02-17T20:28:39.744Z,34.15
2023-02-17T20:31:07.970Z,33.35
2023-02-17T20:33:35.809Z,33.40
2023-02-17T20:36:04.006Z,32.58
2023-02-17T20:38:30.819Z,32.42
2023-02-17T20:40:58.503Z,32.95
2023-02-17T20:43:25.575Z,31.92
2023-02-17T20:45:53.687Z,32.85
2023-02-17T20:48:21.984Z,32.92
2023-02-17T20:50:49.011Z,32.17
2023-02-17T20:53:15.784Z,31.73
2023-02-17T20:55:42.709Z,33.13
2023-02-17T20:58:11.951Z,32.80
2023-02-17T21:00:39.276Z,31.85
2023-02-17T21:03:06.175Z,31.80
2023-02-17T21:05:33.322Z,31.70
2023-02-17T21:08:00.425Z,33.20
2023-02-17T21:10:29.921Z,32.67
2023-02-17T21:12:56.737Z,30.50
2023-02-17T21:15:24.368Z,30.52
2023-02-17T21:17:51.195Z,33.42
2023-02-17T21:20:21.300Z,34.75
2023-02-17T21:22:48.476Z,35.25
2023-02-17T21:25:15.494Z,34.60
2023-02-17T21:27:42.323Z,31.50
2023-02-17T21:30:10.894Z,31.73
2023-02-17T21:32:37.918Z,34.10
2023-02-17T21:35:04.873Z,33.67
2023-02-17T21:37:31.685Z,35.65
2023-02-17T21:39:59.153Z,35.78
2023-02-17T21:42:45.937Z,33.67
2023-02-17T21:45:12.902Z,34.72
2023-02-17T21:47:39.629Z,36.53
2023-02-17T21:50:07.191Z,36.38
2023-02-17T21:52:34.011Z,35.22
2023-02-17T21:55:01.593Z,36.03
2023-02-17T21:57:28.622Z,36.08
2023-02-17T21:59:55.414Z,36.28
2023-02-17T22:02:22.167Z,37.83
2023-02-17T22:04:49.097Z,35.28
2023-02-17T22:07:15.948Z,39.40
2023-02-17T22:09:42.739Z,39.33
2023-02-17T22:12:09.553Z,38.83
2023-02-17T22:14:36.359Z,38.92
2023-02-17T22:17:03.321Z,36.22
2023-02-17T22:19:31.541Z,41.95
2023-02-17T22:21:58.532Z,40.10
2023-02-17T22:24:27.294Z,34.63
2023-02-17T22:26:54.618Z,36.25
2023-02-17T22:29:21.528Z,38.03
2023-02-17T22:31:50.494Z,39.58
2023-02-17T22:34:17.494Z,40.25
2023-02-17T22:36:44.476Z,35.90
2023-02-17T22:39:11.731Z,38.67
2023-02-17T22:41:41.874Z,39.20
2023-02-17T22:44:08.982Z,40.60
2023-02-17T22:46:35.782Z,34.63
2023-02-17T22:49:02.716Z,39.28
2023-02-17T22:51:36.361Z,41.28
2023-02-17T22:54:04.222Z,39.03
2023-02-17T22:56:31.622Z,38.08
2023-02-17T22:59:01.009Z,39.78
2023-02-17T23:01:29.576Z,35.97
2023-02-17T23:03:56.383Z,38.78
2023-02-17T23:06:26.674Z,38.05
2023-02-17T23:08:54.413Z,39.85
2023-02-17T23:11:44.144Z,39.58
2023-02-17T23:14:12.451Z,37.63
2023-02-17T23:16:39.592Z,39.00
2023-02-17T23:19:12.116Z,39.22
2023-02-17T23:21:43.598Z,39.28
2023-02-17T23:24:10.791Z,39.15
2023-02-17T23:26:37.694Z,41.13
2023-02-17T23:29:04.785Z,38.80
2023-02-17T23:31:32.852Z,38.15
2023-02-17T23:33:59.669Z,39.70
2023-02-17T23:36:26.619Z,39.42
2023-02-17T23:38:55.620Z,39.42
2023-02-17T23:41:22.437Z,38.88
2023-02-17T23:43:49.339Z,36.33
2023-02-17T23:46:16.340Z,39.38
2023-02-17T23:48:43.407Z,39.13
2023-02-17T23:51:14.520Z,35.78
2023-02-17T23:53:41.261Z,40.20
2023-02-17T23:56:14.398Z,38.17
2023-02-17T23:58:41.685Z,38.20
